Time;durP1;ratioP1;P1;durP2;ratioP2;P2;SDS_P1;SDS_P2;PMS_P1;PMS_P2;Temp;Humidity;BMP_temperature;BMP_pressure;BME280_temperature;BME280_humidity;BME280_pressure;Samples;Min_cycle;Max_cycle;Signal;HPM_P1;HPM_P2
2022/10/07 00:00:47;;;;;;;8.25;5.08;;;;;;;;;;1712175;82;21069;-71
2022/10/07 00:03:14;;;;;;;8.75;5.90;;;;;;;;;;1715730;82;21040;-71
2022/10/07 00:05:40;;;;;;;8.83;5.42;;;;;;;;;;1716733;82;21054;-70
2022/10/07 00:08:06;;;;;;;7.83;5.67;;;;;;;;;;1715600;82;21001;-70
2022/10/07 00:10:34;;;;;;;7.62;5.67;;;;;;;;;;1711030;82;22451;-71
2022/10/07 00:13:01;;;;;;;7.50;5.25;;;;;;;;;;1711503;83;21002;-71
2022/10/07 00:15:29;;;;;;;8.18;5.60;;;;;;;;;;1708741;82;21063;-70
2022/10/07 00:17:55;;;;;;;11.28;5.83;;;;;;;;;;1711653;82;21048;-70
2022/10/07 00:20:21;;;;;;;9.28;5.33;;;;;;;;;;1707631;83;21996;-70
2022/10/07 00:22:48;;;;;;;8.40;6.25;;;;;;;;;;1710656;82;21040;-71
2022/10/07 00:25:14;;;;;;;9.05;5.30;;;;;;;;;;1715210;82;21001;-71
2022/10/07 00:27:40;;;;;;;6.80;5.60;;;;;;;;;;1709701;82;20989;-72
2022/10/07 00:30:08;;;;;;;7.62;5.80;;;;;;;;;;1726720;82;21040;-71
2022/10/07 00:32:34;;;;;;;8.38;5.55;;;;;;;;;;1726419;82;21083;-70
2022/10/07 00:35:01;;;;;;;9.63;5.53;;;;;;;;;;1726294;82;20994;-71
2022/10/07 00:37:27;;;;;;;11.40;6.67;;;;;;;;;;1723464;82;22077;-71
2022/10/07 00:39:53;;;;;;;8.50;5.97;;;;;;;;;;1723781;82;21031;-71
2022/10/07 00:42:19;;;;;;;8.10;5.97;;;;;;;;;;1723538;82;21075;-71
2022/10/07 00:44:47;;;;;;;9.03;5.90;;;;;;;;;;1692297;83;20993;-71
2022/10/07 00:47:15;;;;;;;8.15;5.40;;;;;;;;;;1669714;85;21580;-71
2022/10/07 00:49:50;;;;;;;10.90;6.45;;;;;;;;;;1715761;82;21013;-71
2022/10/07 00:52:16;;;;;;;8.15;5.70;;;;;;;;;;1712493;82;21576;-71
2022/10/07 00:54:43;;;;;;;6.70;5.03;;;;;;;;;;1716845;82;21205;-71
2022/10/07 00:57:09;;;;;;;7.47;5.70;;;;;;;;;;1718022;82;20933;-71
2022/10/07 00:59:36;;;;;;;11.40;5.97;;;;;;;;;;1704537;81;21013;-71
2022/10/07 01:04:45;;;;;;;11.03;6.20;;;;;;;;;;1720566;80;73945;-67
2022/10/07 01:07:12;;;;;;;8.80;5.65;;;;;;;;;;1699943;84;21018;-66
2022/10/07 01:09:40;;;;;;;8.35;5.72;;;;;;;;;;1677680;85;21036;-66
2022/10/07 01:12:08;;;;;;;8.43;5.45;;;;;;;;;;1721014;83;21029;-66
2022/10/07 01:14:37;;;;;;;9.20;5.97;;;;;;;;;;1721153;82;21072;-67
2022/10/07 01:17:05;;;;;;;9.60;6.00;;;;;;;;;;1717967;83;21027;-67
2022/10/07 01:19:35;;;;;;;8.55;5.62;;;;;;;;;;1721452;83;21041;-67
2022/10/07 01:22:12;;;;;;;7.28;5.45;;;;;;;;;;1716022;83;21016;-67
2022/10/07 01:24:53;;;;;;;8.03;5.90;;;;;;;;;;1719727;82;21075;-67
2022/10/07 01:27:20;;;;;;;7.35;5.12;;;;;;;;;;1743721;81;20992;-67
2022/10/07 01:29:54;;;;;;;8.65;5.67;;;;;;;;;;1746913;82;20982;-67
2022/10/07 01:32:18;;;;;;;8.15;5.55;;;;;;;;;;1747006;81;21048;-68
2022/10/07 01:34:44;;;;;;;13.45;6.30;;;;;;;;;;1753448;80;20987;-67
2022/10/07 01:37:13;;;;;;;8.45;6.22;;;;;;;;;;1749575;82;21033;-67
2022/10/07 01:39:43;;;;;;;8.78;5.80;;;;;;;;;;1743108;82;21099;-67
2022/10/07 01:42:09;;;;;;;6.62;5.42;;;;;;;;;;1740456;82;21024;-67
2022/10/07 01:44:36;;;;;;;9.13;6.45;;;;;;;;;;1749261;80;21043;-67
2022/10/07 01:47:03;;;;;;;10.18;5.90;;;;;;;;;;1750667;82;20976;-67
2022/10/07 01:49:29;;;;;;;9.25;6.47;;;;;;;;;;1746697;82;20978;-67
2022/10/07 01:52:15;;;;;;;9.05;6.03;;;;;;;;;;1748928;82;21066;-68
2022/10/07 01:54:43;;;;;;;10.03;6.40;;;;;;;;;;1748018;80;21019;-68
2022/10/07 01:57:24;;;;;;;8.95;5.85;;;;;;;;;;1739111;80;21043;-68
2022/10/07 01:59:55;;;;;;;8.85;5.72;;;;;;;;;;1749666;82;21468;-68
2022/10/07 02:02:40;;;;;;;10.55;6.55;;;;;;;;;;1751214;80;21460;-67
2022/10/07 02:05:16;;;;;;;8.38;5.30;;;;;;;;;;1739533;80;21055;-67
2022/10/07 02:07:47;;;;;;;7.40;5.12;;;;;;;;;;1742779;81;21485;-67
2022/10/07 02:10:27;;;;;;;9.73;5.90;;;;;;;;;;1737177;82;20989;-67
2022/10/07 02:13:01;;;;;;;10.38;6.20;;;;;;;;;;1745916;80;21031;-68
2022/10/07 02:15:30;;;;;;;10.03;6.03;;;;;;;;;;1748684;80;21016;-68
2022/10/07 02:17:58;;;;;;;8.35;6.10;;;;;;;;;;1740195;82;21032;-68
2022/10/07 02:20:25;;;;;;;9.40;5.85;;;;;;;;;;1739941;82;21008;-69
2022/10/07 02:22:52;;;;;;;9.33;6.12;;;;;;;;;;1738277;80;20984;-68
2022/10/07 02:25:19;;;;;;;8.60;5.60;;;;;;;;;;1740282;82;21026;-68
2022/10/07 02:27:45;;;;;;;7.45;5.47;;;;;;;;;;1737141;82;20981;-68
2022/10/07 02:30:12;;;;;;;9.25;5.95;;;;;;;;;;1740218;82;20983;-68
2022/10/07 02:32:40;;;;;;;7.72;5.67;;;;;;;;;;1745030;80;21048;-68
2022/10/07 02:35:08;;;;;;;8.25;5.87;;;;;;;;;;1737850;82;21008;-68
2022/10/07 02:37:36;;;;;;;8.05;5.58;;;;;;;;;;1735536;81;21023;-68
2022/10/07 02:40:04;;;;;;;7.58;5.62;;;;;;;;;;1746695;82;20988;-68
2022/10/07 02:42:38;;;;;;;9.23;5.30;;;;;;;;;;1722964;82;20972;-68
2022/10/07 02:45:09;;;;;;;6.55;5.20;;;;;;;;;;1674093;83;21044;-68
2022/10/07 02:47:41;;;;;;;9.80;5.30;;;;;;;;;;1697688;83;21549;-68
2022/10/07 02:50:09;;;;;;;8.70;5.15;;;;;;;;;;1672585;85;21005;-68
2022/10/07 02:52:36;;;;;;;6.10;4.92;;;;;;;;;;1738693;82;21014;-68
2022/10/07 02:55:05;;;;;;;7.47;4.75;;;;;;;;;;1751636;80;20988;-68
2022/10/07 02:57:39;;;;;;;6.37;4.72;;;;;;;;;;1714136;83;21601;-68
2022/10/07 03:00:07;;;;;;;7.62;5.00;;;;;;;;;;1742411;82;21039;-68
2022/10/07 03:02:48;;;;;;;9.03;4.97;;;;;;;;;;1742226;82;21035;-67
2022/10/07 03:05:18;;;;;;;7.95;5.20;;;;;;;;;;1751825;80;21091;-67
2022/10/07 03:07:42;;;;;;;6.35;4.95;;;;;;;;;;1757777;81;21004;-67
2022/10/07 03:10:10;;;;;;;6.58;4.22;;;;;;;;;;1764124;80;21578;-67
2022/10/07 03:12:36;;;;;;;7.05;4.85;;;;;;;;;;1754291;81;21510;-67
2022/10/07 03:15:02;;;;;;;6.75;4.50;;;;;;;;;;1754565;81;21043;-67
2022/10/07 03:17:28;;;;;;;7.80;5.25;;;;;;;;;;1757019;81;21056;-67
2022/10/07 03:19:54;;;;;;;6.80;5.05;;;;;;;;;;1759392;81;20985;-67
2022/10/07 03:22:21;;;;;;;6.90;4.85;;;;;;;;;;1757767;81;21079;-67
2022/10/07 03:24:47;;;;;;;8.60;5.12;;;;;;;;;;1759164;80;21558;-67
2022/10/07 03:27:15;;;;;;;8.68;5.15;;;;;;;;;;1757346;81;20979;-68
2022/10/07 03:29:41;;;;;;;6.83;4.83;;;;;;;;;;1759043;81;21067;-68
2022/10/07 03:32:08;;;;;;;6.70;5.12;;;;;;;;;;1758339;81;21023;-67
2022/10/07 03:34:36;;;;;;;11.95;5.62;;;;;;;;;;1758217;81;21046;-67
2022/10/07 03:37:03;;;;;;;9.38;5.50;;;;;;;;;;1753233;80;21039;-67
2022/10/07 03:39:29;;;;;;;7.92;5.20;;;;;;;;;;1747409;81;21024;-65
2022/10/07 03:41:55;;;;;;;8.75;5.08;;;;;;;;;;1761570;81;21012;-65
2022/10/07 03:44:22;;;;;;;6.95;5.00;;;;;;;;;;1753988;81;21067;-66
2022/10/07 03:46:49;;;;;;;6.45;4.80;;;;;;;;;;1756961;81;21053;-66
2022/10/07 03:49:16;;;;;;;7.78;4.62;;;;;;;;;;1753914;81;21042;-66
2022/10/07 03:51:43;;;;;;;7.10;4.70;;;;;;;;;;1749470;80;21091;-67
2022/10/07 03:54:09;;;;;;;6.08;4.47;;;;;;;;;;1760005;80;21019;-67
2022/10/07 03:56:37;;;;;;;8.25;4.30;;;;;;;;;;1758341;80;21084;-67
2022/10/07 03:59:04;;;;;;;6.58;4.28;;;;;;;;;;1754452;81;21563;-67
2022/10/07 04:01:30;;;;;;;6.72;4.00;;;;;;;;;;1769762;80;21059;-68
2022/10/07 04:03:59;;;;;;;6.78;3.98;;;;;;;;;;1764498;80;21012;-68
2022/10/07 04:06:26;;;;;;;5.85;4.42;;;;;;;;;;1752160;80;21119;-68
2022/10/07 04:10:36;;;;;;;8.03;4.35;;;;;;;;;;1802537;79;23563;-63
2022/10/07 04:13:03;;;;;;;5.50;4.03;;;;;;;;;;1757058;81;21521;-63
2022/10/07 04:15:33;;;;;;;6.50;3.67;;;;;;;;;;1766700;80;21001;-63
2022/10/07 04:18:00;;;;;;;7.17;4.05;;;;;;;;;;1769121;80;21080;-64
2022/10/07 04:20:27;;;;;;;5.40;3.95;;;;;;;;;;1763623;80;21281;-64
2022/10/07 04:22:54;;;;;;;8.98;4.10;;;;;;;;;;1743872;81;21004;-64
2022/10/07 04:25:32;;;;;;;9.78;4.70;;;;;;;;;;1761372;81;21109;-64
2022/10/07 04:28:00;;;;;;;6.30;3.47;;;;;;;;;;1754070;80;21060;-64
2022/10/07 04:30:27;;;;;;;6.75;3.47;;;;;;;;;;1763418;80;21565;-65
2022/10/07 04:32:54;;;;;;;6.08;3.55;;;;;;;;;;1761717;81;20975;-65
2022/10/07 04:35:22;;;;;;;4.83;3.62;;;;;;;;;;1758251;80;21592;-64
2022/10/07 04:37:49;;;;;;;7.50;3.62;;;;;;;;;;1761453;81;21039;-63
2022/10/07 04:40:16;;;;;;;9.98;4.12;;;;;;;;;;1761204;80;21083;-64
2022/10/07 04:45:28;;;;;;;7.55;3.92;;;;;;;;;;1758333;81;21038;-64
2022/10/07 04:47:54;;;;;;;7.30;4.17;;;;;;;;;;1767877;80;21495;-64
2022/10/07 04:50:21;;;;;;;6.00;3.45;;;;;;;;;;1760593;81;21016;-63
2022/10/07 04:52:47;;;;;;;7.12;3.90;;;;;;;;;;1761133;81;21078;-64
2022/10/07 04:55:14;;;;;;;5.85;3.75;;;;;;;;;;1761267;81;21512;-64
2022/10/07 04:57:42;;;;;;;6.92;3.75;;;;;;;;;;1761525;81;21071;-64
2022/10/07 05:00:09;;;;;;;5.55;3.80;;;;;;;;;;1761321;80;21060;-64
2022/10/07 05:02:35;;;;;;;5.97;3.45;;;;;;;;;;1761582;81;21042;-64
2022/10/07 05:05:02;;;;;;;9.73;3.80;;;;;;;;;;1741217;80;21133;-64
2022/10/07 05:07:30;;;;;;;6.90;3.80;;;;;;;;;;1729635;83;21052;-63
2022/10/07 05:09:58;;;;;;;8.65;3.50;;;;;;;;;;1730423;82;21109;-63
2022/10/07 05:12:26;;;;;;;8.40;3.75;;;;;;;;;;1729797;82;21040;-64
2022/10/07 05:14:53;;;;;;;6.78;3.62;;;;;;;;;;1730577;81;21003;-64
2022/10/07 05:17:20;;;;;;;6.47;3.90;;;;;;;;;;1729672;81;21093;-64
2022/10/07 05:19:48;;;;;;;7.22;3.77;;;;;;;;;;1729934;82;21077;-64
2022/10/07 05:22:15;;;;;;;7.40;3.72;;;;;;;;;;1730130;82;21040;-64
2022/10/07 05:24:41;;;;;;;5.10;3.58;;;;;;;;;;1729250;82;21013;-64
2022/10/07 05:27:09;;;;;;;7.67;4.10;;;;;;;;;;1714047;83;21453;-64
2022/10/07 05:29:36;;;;;;;5.85;3.25;;;;;;;;;;1729599;81;21068;-67
2022/10/07 05:32:04;;;;;;;5.33;3.20;;;;;;;;;;1729834;82;21492;-66
2022/10/07 05:34:30;;;;;;;6.58;3.17;;;;;;;;;;1732297;81;21004;-67
2022/10/07 05:36:56;;;;;;;6.53;3.33;;;;;;;;;;1733094;81;21041;-65
2022/10/07 05:39:23;;;;;;;7.03;3.45;;;;;;;;;;1733322;82;20987;-68
2022/10/07 05:41:51;;;;;;;6.80;3.77;;;;;;;;;;1729418;82;21557;-68
2022/10/07 05:44:19;;;;;;;8.73;3.40;;;;;;;;;;1728902;82;21088;-68
2022/10/07 05:46:45;;;;;;;7.72;3.77;;;;;;;;;;1722273;82;21096;-64
2022/10/07 05:49:12;;;;;;;13.80;4.47;;;;;;;;;;1724622;82;21043;-65
2022/10/07 05:51:39;;;;;;;13.68;5.15;;;;;;;;;;1729400;83;21018;-65
2022/10/07 05:54:05;;;;;;;16.87;6.70;;;;;;;;;;1726755;81;21009;-65
2022/10/07 05:56:35;;;;;;;15.13;5.35;;;;;;;;;;1729054;81;21556;-65
2022/10/07 05:59:02;;;;;;;16.05;4.95;;;;;;;;;;1729814;82;21497;-65
2022/10/07 06:01:28;;;;;;;11.28;4.05;;;;;;;;;;1731036;82;21541;-65
2022/10/07 06:03:57;;;;;;;11.00;4.53;;;;;;;;;;1729561;82;21246;-65
2022/10/07 06:06:24;;;;;;;15.30;4.50;;;;;;;;;;1729542;81;21161;-65
2022/10/07 06:08:52;;;;;;;13.32;4.92;;;;;;;;;;1724097;81;21061;-67
2022/10/07 06:14:05;;;;;;;11.65;4.83;;;;;;;;;;1711384;82;21572;-66
2022/10/07 06:16:31;;;;;;;13.40;4.55;;;;;;;;;;1715802;83;21624;-66
2022/10/07 06:18:58;;;;;;;9.80;4.15;;;;;;;;;;1717336;82;21054;-66
2022/10/07 06:21:26;;;;;;;10.10;3.45;;;;;;;;;;1708612;83;21062;-66
2022/10/07 06:23:55;;;;;;;11.22;3.65;;;;;;;;;;1724966;82;21564;-66
2022/10/07 06:26:23;;;;;;;9.65;3.75;;;;;;;;;;1716561;83;20990;-67
2022/10/07 06:28:50;;;;;;;10.58;4.00;;;;;;;;;;1716693;83;21039;-65
2022/10/07 06:31:21;;;;;;;10.08;3.80;;;;;;;;;;1718854;82;21021;-65
2022/10/07 06:33:45;;;;;;;9.50;3.40;;;;;;;;;;1710500;83;20990;-65
2022/10/07 06:36:13;;;;;;;11.70;3.58;;;;;;;;;;1716298;83;20984;-65
2022/10/07 06:38:44;;;;;;;8.30;3.35;;;;;;;;;;1713122;82;21021;-67
2022/10/07 06:41:10;;;;;;;11.28;3.33;;;;;;;;;;1718599;82;21086;-65
2022/10/07 06:43:37;;;;;;;8.30;3.22;;;;;;;;;;1716273;83;21406;-66
2022/10/07 06:46:06;;;;;;;7.85;3.17;;;;;;;;;;1712575;83;21023;-66
2022/10/07 06:48:34;;;;;;;6.17;2.80;;;;;;;;;;1719289;82;21063;-66
2022/10/07 06:51:04;;;;;;;7.28;3.10;;;;;;;;;;1706238;83;21062;-65
2022/10/07 06:53:32;;;;;;;8.58;2.65;;;;;;;;;;1717153;82;20997;-65
2022/10/07 06:56:02;;;;;;;7.55;3.42;;;;;;;;;;1716170;83;21014;-65
2022/10/07 06:58:30;;;;;;;8.88;3.40;;;;;;;;;;1714066;82;21061;-65
2022/10/07 07:00:58;;;;;;;6.50;2.70;;;;;;;;;;1716642;83;21049;-64
2022/10/07 07:03:25;;;;;;;5.92;2.58;;;;;;;;;;1718351;82;21025;-65
2022/10/07 07:05:52;;;;;;;7.37;2.70;;;;;;;;;;1719318;82;21100;-65
2022/10/07 07:08:19;;;;;;;6.53;3.08;;;;;;;;;;1713850;82;21029;-65
2022/10/07 07:10:45;;;;;;;5.90;2.70;;;;;;;;;;1721113;82;21457;-65
2022/10/07 07:13:12;;;;;;;5.25;2.83;;;;;;;;;;1721029;82;21053;-65
2022/10/07 07:15:40;;;;;;;9.03;3.10;;;;;;;;;;1719922;82;21099;-65
2022/10/07 07:18:07;;;;;;;5.97;2.62;;;;;;;;;;1725996;82;21517;-64
2022/10/07 07:20:36;;;;;;;4.12;2.50;;;;;;;;;;1724122;82;21525;-65
2022/10/07 07:23:03;;;;;;;4.72;2.52;;;;;;;;;;1722653;82;21013;-65
2022/10/07 07:25:31;;;;;;;10.63;2.70;;;;;;;;;;1722550;82;21493;-65
2022/10/07 07:28:00;;;;;;;5.22;2.60;;;;;;;;;;1722398;82;20964;-65
2022/10/07 07:30:27;;;;;;;5.83;2.67;;;;;;;;;;1722952;82;21029;-65
2022/10/07 07:32:54;;;;;;;4.65;2.80;;;;;;;;;;1722939;82;21024;-65
2022/10/07 07:35:21;;;;;;;6.65;2.65;;;;;;;;;;1722707;82;21033;-65
2022/10/07 07:37:49;;;;;;;6.30;2.85;;;;;;;;;;1718872;82;22187;-65
2022/10/07 07:40:17;;;;;;;7.05;2.80;;;;;;;;;;1724897;82;21072;-67
2022/10/07 07:42:45;;;;;;;6.30;2.92;;;;;;;;;;1726711;82;21072;-65
2022/10/07 07:45:13;;;;;;;6.35;2.83;;;;;;;;;;1717470;82;21583;-65
2022/10/07 07:47:39;;;;;;;6.50;2.60;;;;;;;;;;1717102;82;21072;-65
2022/10/07 07:50:06;;;;;;;3.85;2.42;;;;;;;;;;1722803;82;21052;-66
2022/10/07 07:52:32;;;;;;;4.40;2.50;;;;;;;;;;1715864;82;21051;-66
2022/10/07 07:55:01;;;;;;;5.35;2.33;;;;;;;;;;1719002;82;21066;-65
2022/10/07 07:57:28;;;;;;;5.55;2.67;;;;;;;;;;1712911;82;21478;-65
2022/10/07 07:59:56;;;;;;;3.52;2.30;;;;;;;;;;1721481;82;21543;-66
2022/10/07 08:02:23;;;;;;;6.47;2.35;;;;;;;;;;1722192;82;20991;-65
2022/10/07 08:04:50;;;;;;;5.50;2.52;;;;;;;;;;1721630;82;21596;-66
2022/10/07 08:07:18;;;;;;;5.62;2.67;;;;;;;;;;1717219;82;21104;-66
2022/10/07 08:09:46;;;;;;;7.30;2.62;;;;;;;;;;1715316;82;21055;-66
2022/10/07 08:12:13;;;;;;;4.15;2.20;;;;;;;;;;1695087;83;21040;-64
2022/10/07 08:14:40;;;;;;;5.47;2.47;;;;;;;;;;1706514;83;21605;-65
2022/10/07 08:17:07;;;;;;;7.37;2.50;;;;;;;;;;1681570;83;21068;-65
2022/10/07 08:19:34;;;;;;;6.10;2.50;;;;;;;;;;1668451;85;21060;-64
2022/10/07 08:22:05;;;;;;;3.67;2.45;;;;;;;;;;1687093;83;21079;-65
2022/10/07 08:24:40;;;;;;;5.83;2.33;;;;;;;;;;1690127;83;21032;-69
2022/10/07 08:27:06;;;;;;;3.60;2.20;;;;;;;;;;1688985;83;21687;-66
2022/10/07 08:29:36;;;;;;;6.12;2.20;;;;;;;;;;1658693;85;21039;-64
2022/10/07 08:32:04;;;;;;;4.10;2.20;;;;;;;;;;1686058;85;21236;-66
2022/10/07 08:34:31;;;;;;;3.87;2.33;;;;;;;;;;1687862;85;21511;-66
2022/10/07 08:36:57;;;;;;;5.90;2.22;;;;;;;;;;1687554;85;21087;-66
2022/10/07 08:39:25;;;;;;;5.53;2.20;;;;;;;;;;1691734;83;21075;-65
2022/10/07 08:41:53;;;;;;;5.55;2.27;;;;;;;;;;1688216;83;21596;-65
2022/10/07 08:44:21;;;;;;;6.37;2.20;;;;;;;;;;1690000;83;21005;-66
2022/10/07 08:46:49;;;;;;;3.20;2.20;;;;;;;;;;1686433;83;21035;-65
2022/10/07 08:49:16;;;;;;;5.90;2.45;;;;;;;;;;1689016;83;21032;-65
2022/10/07 08:51:47;;;;;;;5.40;2.27;;;;;;;;;;1687902;83;21533;-65
2022/10/07 08:54:16;;;;;;;6.47;2.20;;;;;;;;;;1691638;83;21608;-64
2022/10/07 08:56:42;;;;;;;4.12;2.20;;;;;;;;;;1693840;83;21040;-65
2022/10/07 08:59:13;;;;;;;3.75;2.10;;;;;;;;;;1688486;85;21562;-65
2022/10/07 09:02:00;;;;;;;4.85;2.17;;;;;;;;;;1688497;83;21275;-65
2022/10/07 09:04:27;;;;;;;4.75;2.62;;;;;;;;;;1689451;83;21587;-64
2022/10/07 09:06:57;;;;;;;3.87;1.98;;;;;;;;;;1686890;83;21040;-66
2022/10/07 09:09:26;;;;;;;4.50;2.33;;;;;;;;;;1688091;85;21056;-66
2022/10/07 09:11:53;;;;;;;4.90;2.60;;;;;;;;;;1714542;82;21059;-66
2022/10/07 09:14:22;;;;;;;9.33;2.40;;;;;;;;;;1713309;82;21089;-66
2022/10/07 09:16:48;;;;;;;4.92;2.05;;;;;;;;;;1719973;82;21548;-67
2022/10/07 09:19:17;;;;;;;4.00;1.80;;;;;;;;;;1701405;82;21013;-67
2022/10/07 09:21:45;;;;;;;4.85;2.00;;;;;;;;;;1714307;82;21657;-67
2022/10/07 09:24:14;;;;;;;5.08;2.10;;;;;;;;;;1714318;82;21580;-65
2022/10/07 09:26:40;;;;;;;5.30;2.12;;;;;;;;;;1714763;83;21049;-65
2022/10/07 09:29:09;;;;;;;5.30;2.20;;;;;;;;;;1725487;82;21010;-66
2022/10/07 09:31:38;;;;;;;4.10;2.00;;;;;;;;;;1719498;82;21040;-66
2022/10/07 09:34:05;;;;;;;4.53;2.17;;;;;;;;;;1703944;82;21028;-66
2022/10/07 09:36:33;;;;;;;5.40;2.40;;;;;;;;;;1701495;82;21002;-66
2022/10/07 09:39:01;;;;;;;6.45;2.45;;;;;;;;;;1706381;82;21104;-66
2022/10/07 09:41:34;;;;;;;5.20;2.15;;;;;;;;;;1717332;82;21040;-65
2022/10/07 09:44:15;;;;;;;4.97;2.42;;;;;;;;;;1704298;83;21244;-66
2022/10/07 09:46:49;;;;;;;5.00;2.30;;;;;;;;;;1659502;83;21102;-65
2022/10/07 09:49:30;;;;;;;4.70;2.50;;;;;;;;;;1716428;82;21066;-67
2022/10/07 09:52:15;;;;;;;4.42;2.25;;;;;;;;;;1717486;82;21536;-65
2022/10/07 09:54:42;;;;;;;6.85;2.42;;;;;;;;;;1716400;82;21061;-65
2022/10/07 09:57:10;;;;;;;4.58;2.30;;;;;;;;;;1713973;82;20966;-66
2022/10/07 09:59:36;;;;;;;6.35;2.02;;;;;;;;;;1711499;82;21057;-66
2022/10/07 10:02:04;;;;;;;4.97;2.15;;;;;;;;;;1708613;82;21030;-66
2022/10/07 10:04:34;;;;;;;4.12;2.17;;;;;;;;;;1711678;82;21920;-66
2022/10/07 10:07:05;;;;;;;6.67;2.22;;;;;;;;;;1709255;82;21741;-65
2022/10/07 10:09:31;;;;;;;4.15;2.08;;;;;;;;;;1677420;83;21009;-67
2022/10/07 10:12:12;;;;;;;4.47;2.35;;;;;;;;;;1678227;84;21060;-66
2022/10/07 10:14:45;;;;;;;5.03;2.30;;;;;;;;;;1711422;83;21061;-67
2022/10/07 10:17:13;;;;;;;4.03;2.55;;;;;;;;;;1719748;82;21088;-67
2022/10/07 10:19:39;;;;;;;4.37;2.30;;;;;;;;;;1706890;82;21023;-67
2022/10/07 10:22:07;;;;;;;4.62;2.30;;;;;;;;;;1716425;82;21033;-68
2022/10/07 10:27:26;;;;;;;4.40;2.08;;;;;;;;;;1719238;83;21089;-66
2022/10/07 10:30:03;;;;;;;5.90;2.15;;;;;;;;;;1703663;83;21068;-67
2022/10/07 10:32:37;;;;;;;4.22;2.10;;;;;;;;;;1711175;83;21543;-66
2022/10/07 10:35:22;;;;;;;5.83;2.20;;;;;;;;;;1700631;82;21558;-66
2022/10/07 10:37:57;;;;;;;4.85;2.30;;;;;;;;;;1716415;83;21587;-66
2022/10/07 10:40:40;;;;;;;3.77;2.10;;;;;;;;;;1649951;85;21057;-66
2022/10/07 10:43:17;;;;;;;3.47;1.90;;;;;;;;;;1610904;87;21568;-65
2022/10/07 10:45:57;;;;;;;5.80;2.30;;;;;;;;;;1680164;82;21037;-65
2022/10/07 10:48:30;;;;;;;5.22;2.20;;;;;;;;;;1710056;82;22112;-66
2022/10/07 10:51:02;;;;;;;3.17;2.20;;;;;;;;;;1708890;82;21013;-66
2022/10/07 10:53:33;;;;;;;4.25;2.30;;;;;;;;;;1706684;82;21044;-66
2022/10/07 10:56:09;;;;;;;4.37;2.00;;;;;;;;;;1710150;82;21014;-67
2022/10/07 10:58:52;;;;;;;3.15;1.82;;;;;;;;;;1716062;82;21039;-66
2022/10/07 11:01:19;;;;;;;4.08;2.00;;;;;;;;;;1717773;82;21017;-66
2022/10/07 11:03:48;;;;;;;3.62;1.95;;;;;;;;;;1712908;82;21100;-69
2022/10/07 11:06:16;;;;;;;4.55;2.30;;;;;;;;;;1718156;82;21047;-65
2022/10/07 11:08:42;;;;;;;4.75;2.10;;;;;;;;;;1712813;82;21559;-64
2022/10/07 11:11:16;;;;;;;3.33;1.92;;;;;;;;;;1716566;82;21010;-64
2022/10/07 11:14:00;;;;;;;4.45;2.10;;;;;;;;;;1714691;83;21037;-64
2022/10/07 11:16:29;;;;;;;3.20;1.90;;;;;;;;;;1715225;82;21038;-64
2022/10/07 11:19:07;;;;;;;5.17;2.02;;;;;;;;;;1705578;82;21706;-65
2022/10/07 11:21:34;;;;;;;3.22;2.00;;;;;;;;;;1707040;83;21049;-65
2022/10/07 11:24:02;;;;;;;4.03;2.27;;;;;;;;;;1715615;83;21061;-66
2022/10/07 11:26:31;;;;;;;5.12;1.92;;;;;;;;;;1717890;82;21021;-65
2022/10/07 11:28:58;;;;;;;4.78;2.50;;;;;;;;;;1716299;83;21015;-65
2022/10/07 11:31:34;;;;;;;5.10;2.25;;;;;;;;;;1713101;82;21012;-65
2022/10/07 11:34:12;;;;;;;2.98;2.08;;;;;;;;;;1714707;82;21102;-69
2022/10/07 11:36:40;;;;;;;3.08;1.92;;;;;;;;;;1714037;82;21563;-64
2022/10/07 11:39:07;;;;;;;3.15;2.20;;;;;;;;;;1718688;82;21061;-65
2022/10/07 11:41:34;;;;;;;8.00;2.30;;;;;;;;;;1713007;82;21013;-66
2022/10/07 11:44:01;;;;;;;6.85;2.35;;;;;;;;;;1711233;82;21036;-65
2022/10/07 11:46:32;;;;;;;3.27;2.02;;;;;;;;;;1715558;82;21117;-64
2022/10/07 11:49:06;;;;;;;3.77;1.98;;;;;;;;;;1716562;82;21069;-65
2022/10/07 11:51:34;;;;;;;4.90;2.00;;;;;;;;;;1714205;82;21102;-65
2022/10/07 11:54:01;;;;;;;8.45;2.95;;;;;;;;;;1715807;82;21049;-66
2022/10/07 11:56:29;;;;;;;5.47;2.60;;;;;;;;;;1715701;82;21606;-65
2022/10/07 11:59:03;;;;;;;6.05;2.47;;;;;;;;;;1723166;83;21037;-66
2022/10/07 12:01:36;;;;;;;4.37;2.17;;;;;;;;;;1716318;83;21065;-66
2022/10/07 12:04:23;;;;;;;6.40;2.50;;;;;;;;;;1715212;82;21101;-67
2022/10/07 12:07:09;;;;;;;5.55;2.50;;;;;;;;;;1716342;82;21020;-64
2022/10/07 12:09:51;;;;;;;4.92;2.37;;;;;;;;;;1662920;85;21001;-66
2022/10/07 12:12:19;;;;;;;5.20;2.40;;;;;;;;;;1661311;85;21087;-66
2022/10/07 12:14:46;;;;;;;5.17;2.37;;;;;;;;;;1689613;83;21072;-66
2022/10/07 12:17:19;;;;;;;3.60;2.35;;;;;;;;;;1699002;82;21617;-66
2022/10/07 12:19:46;;;;;;;4.87;2.70;;;;;;;;;;1709930;83;21099;-66
2022/10/07 12:22:13;;;;;;;6.53;2.33;;;;;;;;;;1716042;83;21567;-66
2022/10/07 12:24:41;;;;;;;4.62;2.42;;;;;;;;;;1715213;82;21033;-66
2022/10/07 12:27:17;;;;;;;7.20;2.50;;;;;;;;;;1714955;83;21120;-66
2022/10/07 12:29:49;;;;;;;4.28;2.30;;;;;;;;;;1715152;83;20988;-66
2022/10/07 12:32:34;;;;;;;4.65;2.83;;;;;;;;;;1710716;82;21550;-66
2022/10/07 12:35:02;;;;;;;5.10;2.60;;;;;;;;;;1708737;82;21636;-66
2022/10/07 12:37:35;;;;;;;3.95;2.45;;;;;;;;;;1713548;82;21588;-66
2022/10/07 12:40:19;;;;;;;8.15;2.52;;;;;;;;;;1701761;82;21060;-66
2022/10/07 12:42:47;;;;;;;5.33;2.62;;;;;;;;;;1711754;83;21056;-66
2022/10/07 12:45:13;;;;;;;4.97;2.70;;;;;;;;;;1716452;83;21482;-66
2022/10/07 12:47:39;;;;;;;5.50;2.50;;;;;;;;;;1710862;83;21060;-66
2022/10/07 12:50:07;;;;;;;4.80;2.35;;;;;;;;;;1708256;82;21057;-66
2022/10/07 12:52:44;;;;;;;4.75;2.58;;;;;;;;;;1712354;82;21014;-65
2022/10/07 12:55:16;;;;;;;5.20;2.52;;;;;;;;;;1716180;82;21592;-66
2022/10/07 12:57:44;;;;;;;5.30;2.70;;;;;;;;;;1709349;82;21476;-66
2022/10/07 13:00:21;;;;;;;7.30;2.77;;;;;;;;;;1704018;82;21528;-66
2022/10/07 13:02:56;;;;;;;6.83;2.70;;;;;;;;;;1715627;82;21114;-67
2022/10/07 13:05:29;;;;;;;8.55;2.80;;;;;;;;;;1706559;82;21052;-68
2022/10/07 13:08:14;;;;;;;4.72;2.47;;;;;;;;;;1704731;82;21061;-67
2022/10/07 13:10:45;;;;;;;6.25;2.98;;;;;;;;;;1702345;82;21579;-67
2022/10/07 13:13:11;;;;;;;5.37;2.42;;;;;;;;;;1716005;83;21057;-67
2022/10/07 13:15:41;;;;;;;4.20;2.83;;;;;;;;;;1712303;82;21053;-67
2022/10/07 13:18:09;;;;;;;5.40;2.27;;;;;;;;;;1711711;82;21488;-68
2022/10/07 13:20:38;;;;;;;4.28;2.58;;;;;;;;;;1710664;82;21576;-68
2022/10/07 13:23:06;;;;;;;5.10;2.52;;;;;;;;;;1711501;82;21052;-67
2022/10/07 13:25:33;;;;;;;5.35;2.30;;;;;;;;;;1674721;83;21044;-68
2022/10/07 13:27:59;;;;;;;6.20;2.80;;;;;;;;;;1704000;82;21586;-68
2022/10/07 13:30:32;;;;;;;5.95;2.90;;;;;;;;;;1710276;82;21200;-68
2022/10/07 13:33:17;;;;;;;2.77;2.00;;;;;;;;;;1708524;82;21056;-68
2022/10/07 13:35:43;;;;;;;4.12;2.10;;;;;;;;;;1708728;82;21854;-67
2022/10/07 13:38:24;;;;;;;3.25;2.17;;;;;;;;;;1712954;82;21033;-68
2022/10/07 13:40:54;;;;;;;4.25;2.40;;;;;;;;;;1704613;82;21041;-68
2022/10/07 13:43:20;;;;;;;4.15;2.20;;;;;;;;;;1715674;82;21057;-68
2022/10/07 13:45:48;;;;;;;6.05;2.10;;;;;;;;;;1719293;82;21040;-66
2022/10/07 13:48:15;;;;;;;3.27;1.90;;;;;;;;;;1721078;82;22266;-67
2022/10/07 13:50:41;;;;;;;4.97;1.98;;;;;;;;;;1713908;82;21090;-68
2022/10/07 13:53:10;;;;;;;4.22;1.90;;;;;;;;;;1706371;83;21108;-67
2022/10/07 13:55:36;;;;;;;4.05;2.00;;;;;;;;;;1707651;82;21100;-67
2022/10/07 13:58:04;;;;;;;4.03;2.17;;;;;;;;;;1665743;84;21112;-67
2022/10/07 14:00:31;;;;;;;3.17;1.95;;;;;;;;;;1710154;82;21072;-67
2022/10/07 14:03:00;;;;;;;3.25;2.17;;;;;;;;;;1711728;82;21157;-66
2022/10/07 14:05:28;;;;;;;4.20;2.08;;;;;;;;;;1716267;83;21072;-67
2022/10/07 14:07:58;;;;;;;2.00;1.67;;;;;;;;;;1706594;82;21006;-66
2022/10/07 14:10:28;;;;;;;4.95;1.92;;;;;;;;;;1719159;82;22137;-67
2022/10/07 14:12:56;;;;;;;4.45;2.00;;;;;;;;;;1730029;82;21505;-66
2022/10/07 14:15:28;;;;;;;3.65;1.87;;;;;;;;;;1721823;82;21514;-66
2022/10/07 14:17:55;;;;;;;5.30;2.27;;;;;;;;;;1717594;82;21025;-65
2022/10/07 14:20:35;;;;;;;4.62;2.12;;;;;;;;;;1706635;83;21002;-65
2022/10/07 14:23:03;;;;;;;4.67;2.20;;;;;;;;;;1719643;82;22175;-66
2022/10/07 14:25:47;;;;;;;4.03;2.05;;;;;;;;;;1722952;82;21108;-66
2022/10/07 14:28:23;;;;;;;3.65;1.92;;;;;;;;;;1691800;83;21060;-67
2022/10/07 14:37:02;;;;;;;7.55;2.90;;;;;;;;;;1719481;82;21066;-67
2022/10/07 14:39:42;;;;;;;5.70;2.58;;;;;;;;;;1724555;82;21072;-66
2022/10/07 14:42:10;;;;;;;5.97;2.65;;;;;;;;;;1724617;82;21541;-68
2022/10/07 14:44:36;;;;;;;5.65;2.90;;;;;;;;;;1723501;82;21065;-67
2022/10/07 14:47:05;;;;;;;6.85;2.80;;;;;;;;;;1720080;82;21077;-66
2022/10/07 14:49:31;;;;;;;4.08;2.52;;;;;;;;;;1717828;82;21481;-67
2022/10/07 14:51:58;;;;;;;8.65;2.52;;;;;;;;;;1722157;82;22233;-66
2022/10/07 14:54:25;;;;;;;5.37;2.60;;;;;;;;;;1721631;83;21048;-66
2022/10/07 14:56:54;;;;;;;5.20;2.70;;;;;;;;;;1721665;82;21075;-66
2022/10/07 14:59:25;;;;;;;8.33;2.85;;;;;;;;;;1720385;82;21056;-66
2022/10/07 15:01:51;;;;;;;4.83;3.00;;;;;;;;;;1729767;82;21124;-66
2022/10/07 15:04:19;;;;;;;5.08;2.75;;;;;;;;;;1728342;82;21085;-67
2022/10/07 15:06:47;;;;;;;5.97;2.90;;;;;;;;;;1717086;82;21080;-67
2022/10/07 15:09:13;;;;;;;5.85;2.65;;;;;;;;;;1718773;82;21498;-67
2022/10/07 15:11:41;;;;;;;5.22;2.85;;;;;;;;;;1721946;82;21057;-68
2022/10/07 15:14:09;;;;;;;5.78;2.85;;;;;;;;;;1716209;83;21059;-67